createdAt,value
2023-05-15T00:02:15.414Z,93657.84
2023-05-15T00:04:42.562Z,93645.16
2023-05-15T00:07:09.498Z,93646.00
2023-05-15T00:09:37.775Z,93638.91
2023-05-15T00:12:05.295Z,93620.44
2023-05-15T00:14:33.355Z,93627.66
2023-05-15T00:17:00.357Z,93633.59
2023-05-15T00:19:27.232Z,93642.78
2023-05-15T00:21:54.198Z,93662.69
2023-05-15T00:24:22.003Z,93673.16
2023-05-15T00:26:50.404Z,93672.34
2023-05-15T00:29:17.371Z,93671.38
2023-05-15T00:31:45.216Z,93660.94
2023-05-15T00:34:12.129Z,93675.72
2023-05-15T00:36:39.045Z,93688.56
2023-05-15T00:39:06.013Z,93689.38
2023-05-15T00:41:33.783Z,93677.81
2023-05-15T00:44:02.527Z,93664.81
2023-05-15T00:46:31.626Z,93667.84
2023-05-15T00:48:58.798Z,93673.00
2023-05-15T00:51:26.417Z,93666.22
2023-05-15T00:53:54.935Z,93669.44
2023-05-15T00:56:21.747Z,93680.38
2023-05-15T00:58:49.237Z,93672.66
2023-05-15T01:01:17.953Z,93662.53
2023-05-15T01:03:45.096Z,93678.91
2023-05-15T01:06:12.316Z,93664.47
2023-05-15T01:08:46.390Z,93667.84
2023-05-15T01:11:14.627Z,93674.91
2023-05-15T01:13:41.661Z,93669.78
2023-05-15T01:16:09.095Z,93676.69
2023-05-15T01:18:37.868Z,93665.38
2023-05-15T01:21:44.695Z,93656.88
2023-05-15T01:24:24.573Z,93662.19
2023-05-15T01:27:07.127Z,93655.44
2023-05-15T01:29:37.997Z,93651.09
2023-05-15T01:32:09.841Z,93650.16
2023-05-15T01:34:46.094Z,93645.16
2023-05-15T01:37:14.679Z,93648.34
2023-05-15T01:39:42.833Z,93640.16
2023-05-15T01:42:13.790Z,93641.16
2023-05-15T01:44:45.961Z,93628.31
2023-05-15T01:47:14.475Z,93641.78
2023-05-15T01:49:41.291Z,93629.53
2023-05-15T01:52:13.639Z,93632.09
2023-05-15T01:54:42.581Z,93624.72
2023-05-15T01:57:11.748Z,93616.69
2023-05-15T01:59:39.350Z,93628.25
2023-05-15T02:02:06.457Z,93618.94
2023-05-15T02:04:33.795Z,93636.28
2023-05-15T02:07:01.881Z,93641.41
2023-05-15T02:09:29.065Z,93647.38
2023-05-15T02:11:57.210Z,93652.63
2023-05-15T02:14:26.653Z,93634.97
2023-05-15T02:16:53.630Z,93637.38
2023-05-15T02:19:20.646Z,93648.13
2023-05-15T02:21:47.627Z,93642.84
2023-05-15T02:24:14.527Z,93636.56
2023-05-15T02:26:48.025Z,93628.72
2023-05-15T02:29:22.826Z,93621.31
2023-05-15T02:32:00.538Z,93615.03
2023-05-15T02:34:33.324Z,93616.50
2023-05-15T02:37:01.300Z,93617.59
2023-05-15T02:39:29.408Z,93613.28
2023-05-15T02:41:57.223Z,93603.16
2023-05-15T02:44:25.107Z,93616.44
2023-05-15T02:46:53.766Z,93621.91
2023-05-15T02:49:21.396Z,93629.63
2023-05-15T02:51:48.493Z,93621.94
2023-05-15T02:54:15.399Z,93619.22
2023-05-15T02:56:42.349Z,93610.22
2023-05-15T02:59:09.319Z,93599.78
2023-05-15T03:01:36.347Z,93601.88
2023-05-15T03:04:05.021Z,93615.38
2023-05-15T03:06:32.081Z,93602.19
2023-05-15T03:08:59.132Z,93611.03
2023-05-15T03:11:26.022Z,93617.78
2023-05-15T03:13:52.938Z,93620.03
2023-05-15T03:16:19.993Z,93629.97
2023-05-15T03:18:46.949Z,93633.69
2023-05-15T03:21:15.300Z,93631.91
2023-05-15T03:23:42.219Z,93628.06
2023-05-15T03:26:09.083Z,93628.06
2023-05-15T03:28:36.032Z,93616.38
2023-05-15T03:31:04.921Z,93625.06
2023-05-15T03:33:32.434Z,93609.16
2023-05-15T03:35:59.445Z,93613.81
2023-05-15T03:38:27.720Z,93613.66
2023-05-15T03:40:54.648Z,93610.91
2023-05-15T03:43:21.664Z,93591.31
2023-05-15T03:46:08.091Z,93607.19
2023-05-15T03:48:35.004Z,93606.59
2023-05-15T03:51:06.133Z,93609.00
2023-05-15T03:53:34.467Z,93617.50
2023-05-15T03:56:01.364Z,93613.66
2023-05-15T03:58:28.283Z,93615.59
2023-05-15T04:00:55.159Z,93621.38
2023-05-15T04:03:22.197Z,93619.28
2023-05-15T04:05:50.246Z,93615.94
2023-05-15T04:08:17.207Z,93618.69
2023-05-15T04:10:45.754Z,93607.91
2023-05-15T04:13:12.704Z,93613.06
2023-05-15T04:15:40.554Z,93623.53
2023-05-15T04:18:07.501Z,93632.53
2023-05-15T04:20:34.516Z,93642.47
2023-05-15T04:23:04.285Z,93637.97
2023-05-15T04:25:31.557Z,93637.34
2023-05-15T04:27:59.878Z,93636.53
2023-05-15T04:30:26.860Z,93625.44
2023-05-15T04:32:54.044Z,93636.69
2023-05-15T04:35:21.080Z,93633.94
2023-05-15T04:37:48.059Z,93639.09
2023-05-15T04:40:16.560Z,93623.66
2023-05-15T04:42:43.793Z,93612.59
2023-05-15T04:45:12.177Z,93609.19
2023-05-15T04:47:39.112Z,93599.88
2023-05-15T04:50:06.912Z,93593.41
2023-05-15T04:52:33.932Z,93604.50
2023-05-15T04:55:00.870Z,93602.41
2023-05-15T04:57:27.982Z,93599.81
2023-05-15T04:59:54.921Z,93599.03
2023-05-15T05:02:23.755Z,93604.47
2023-05-15T05:04:50.897Z,93598.22
2023-05-15T05:07:17.790Z,93600.00
2023-05-15T05:09:45.006Z,93601.25
2023-05-15T05:12:11.980Z,93587.09
2023-05-15T05:14:40.762Z,93579.03
2023-05-15T05:17:07.884Z,93588.84
2023-05-15T05:19:36.184Z,93590.44
2023-05-15T05:22:05.431Z,93585.44
2023-05-15T05:24:32.808Z,93580.44
2023-05-15T05:27:00.372Z,93577.81
2023-05-15T05:29:27.439Z,93586.81
2023-05-15T05:31:54.613Z,93585.34
2023-05-15T05:34:22.047Z,93588.34
2023-05-15T05:36:50.569Z,93598.25
2023-05-15T05:39:17.383Z,93597.41
2023-05-15T05:41:44.662Z,93602.50
2023-05-15T05:44:11.732Z,93599.75
2023-05-15T05:46:38.700Z,93597.28
2023-05-15T05:49:05.885Z,93600.78
2023-05-15T05:51:32.778Z,93595.28
2023-05-15T05:54:01.066Z,93593.91
2023-05-15T05:56:27.952Z,93592.56
2023-05-15T05:58:56.491Z,93588.41
2023-05-15T06:01:23.451Z,93586.75
2023-05-15T06:03:50.495Z,93587.72
2023-05-15T06:06:17.524Z,93602.84
2023-05-15T06:08:44.458Z,93599.63
2023-05-15T06:11:12.978Z,93610.75
2023-05-15T06:13:40.612Z,93606.78
2023-05-15T06:16:07.667Z,93609.03
2023-05-15T06:18:34.587Z,93605.47
2023-05-15T06:21:01.616Z,93602.50
2023-05-15T06:23:28.555Z,93593.25
2023-05-15T06:25:55.503Z,93591.13
2023-05-15T06:28:23.757Z,93587.06
2023-05-15T06:30:50.477Z,93590.28
2023-05-15T06:33:17.504Z,93591.81
2023-05-15T06:35:44.692Z,93587.38
2023-05-15T06:38:11.657Z,93594.31
2023-05-15T06:40:38.555Z,93600.66
2023-05-15T06:43:05.569Z,93601.38
2023-05-15T06:45:33.866Z,93603.94
2023-05-15T06:48:01.907Z,93601.50
2023-05-15T06:50:28.970Z,93609.47
2023-05-15T06:52:55.868Z,93605.28
2023-05-15T06:55:23.584Z,93615.44
2023-05-15T06:57:50.658Z,93610.09
2023-05-15T07:00:18.207Z,93618.78
2023-05-15T07:02:46.529Z,93608.72
2023-05-15T07:05:14.150Z,93628.72
2023-05-15T07:07:41.568Z,93619.59
2023-05-15T07:10:09.493Z,93612.97
2023-05-15T07:12:36.519Z,93607.47
2023-05-15T07:15:03.746Z,93601.13
2023-05-15T07:17:31.778Z,93608.44
2023-05-15T07:20:00.188Z,93607.19
2023-05-15T07:22:26.951Z,93599.19
2023-05-15T07:24:53.786Z,93603.34
2023-05-15T07:27:20.639Z,93601.56
2023-05-15T07:29:47.570Z,93605.28
2023-05-15T07:32:14.476Z,93614.97
2023-05-15T07:34:42.748Z,93619.59
2023-05-15T07:37:10.910Z,93613.44
2023-05-15T07:39:38.021Z,93602.81
2023-05-15T07:42:05.272Z,93607.91
2023-05-15T07:44:32.212Z,93604.28
2023-05-15T07:46:59.369Z,93609.25
2023-05-15T07:49:26.279Z,93604.72
2023-05-15T07:51:53.237Z,93605.56
2023-05-15T07:54:21.828Z,93609.03
2023-05-15T07:56:49.000Z,93614.34
2023-05-15T07:59:16.153Z,93617.16
2023-05-15T08:01:43.213Z,93617.22
2023-05-15T08:04:10.145Z,93631.88
2023-05-15T08:06:38.360Z,93633.56
2023-05-15T08:09:05.454Z,93629.63
2023-05-15T08:11:33.796Z,93631.84
2023-05-15T08:14:00.779Z,93639.34
2023-05-15T08:16:27.889Z,93636.25
2023-05-15T08:18:58.757Z,93635.25
2023-05-15T08:21:25.782Z,93633.25
2023-05-15T08:23:53.848Z,93626.41
2023-05-15T08:26:21.194Z,93634.63
2023-05-15T08:28:49.441Z,93626.31
2023-05-15T08:31:16.297Z,93625.03
2023-05-15T08:33:43.285Z,93624.66
2023-05-15T08:36:10.465Z,93626.19
2023-05-15T08:38:37.309Z,93617.81
2023-05-15T08:41:07.805Z,93617.19
2023-05-15T08:43:36.956Z,93613.88
2023-05-15T08:46:05.496Z,93611.34
2023-05-15T08:48:37.272Z,93618.75
2023-05-15T08:51:04.825Z,93619.72
2023-05-15T08:53:32.124Z,93625.56
2023-05-15T08:55:59.044Z,93616.59
2023-05-15T08:58:28.476Z,93611.59
2023-05-15T09:00:56.028Z,93606.16
2023-05-15T09:03:28.146Z,93609.50
2023-05-15T09:05:55.275Z,93602.34
2023-05-15T09:08:23.037Z,93603.56
2023-05-15T09:10:50.313Z,93614.41
2023-05-15T09:13:17.591Z,93608.66
2023-05-15T09:15:45.835Z,93611.44
2023-05-15T09:18:12.554Z,93601.97
2023-05-15T09:20:40.923Z,93596.00
2023-05-15T09:23:23.227Z,93585.47
2023-05-15T09:25:53.665Z,93587.19
2023-05-15T09:28:28.335Z,93577.41
2023-05-15T09:31:00.574Z,93571.56
2023-05-15T09:33:28.951Z,93570.25
2023-05-15T09:35:57.356Z,93569.06
2023-05-15T09:38:24.372Z,93573.91
2023-05-15T09:40:51.988Z,93560.84
2023-05-15T09:43:18.896Z,93557.50
2023-05-15T09:45:48.527Z,93550.38
2023-05-15T09:48:15.793Z,93541.66
2023-05-15T09:50:43.000Z,93533.09
2023-05-15T09:53:14.018Z,93532.28
2023-05-15T09:55:42.220Z,93535.72
2023-05-15T09:58:11.254Z,93537.56
2023-05-15T10:00:48.249Z,93534.81
2023-05-15T10:03:18.015Z,93542.03
2023-05-15T10:05:45.159Z,93540.44
2023-05-15T10:08:15.066Z,93540.47
2023-05-15T10:10:42.588Z,93526.47
2023-05-15T10:13:10.039Z,93544.25
2023-05-15T10:15:37.532Z,93543.06
2023-05-15T10:18:05.056Z,93534.72
2023-05-15T10:20:35.675Z,93537.31
2023-05-15T10:23:05.004Z,93535.53
2023-05-15T10:25:39.945Z,93544.31
2023-05-15T10:28:09.316Z,93552.69
2023-05-15T10:30:36.824Z,93553.53
2023-05-15T10:33:05.092Z,93563.06
2023-05-15T10:35:32.117Z,93573.06
2023-05-15T10:37:59.431Z,93572.47
2023-05-15T10:40:27.392Z,93579.06
2023-05-15T10:42:58.126Z,93569.50
2023-05-15T10:45:25.496Z,93570.47
2023-05-15T10:47:53.038Z,93584.25
2023-05-15T10:50:20.197Z,93577.47
2023-05-15T10:52:51.261Z,93579.88
2023-05-15T10:55:18.857Z,93585.06
2023-05-15T10:57:46.988Z,93584.84
2023-05-15T11:00:41.876Z,93581.63
2023-05-15T11:03:08.966Z,93576.84
2023-05-15T11:06:09.882Z,93572.84
2023-05-15T11:08:37.472Z,93574.66
2023-05-15T11:11:04.376Z,93566.69
2023-05-15T11:14:04.473Z,93572.47
2023-05-15T11:17:04.320Z,93568.31
2023-05-15T11:19:36.447Z,93560.91
2023-05-15T11:22:15.812Z,93567.50
2023-05-15T11:24:51.190Z,93559.91
2023-05-15T11:27:20.552Z,93564.50
2023-05-15T11:30:08.132Z,93568.91
2023-05-15T11:32:50.796Z,93568.13
2023-05-15T11:35:23.731Z,93563.72
2023-05-15T11:37:52.106Z,93558.13
2023-05-15T11:40:21.432Z,93556.94
2023-05-15T11:43:05.344Z,93556.31
2023-05-15T11:45:34.174Z,93537.78
2023-05-15T11:48:03.902Z,93521.00
2023-05-15T11:50:32.917Z,93532.56
2023-05-15T11:53:04.118Z,93532.13
2023-05-15T11:55:32.257Z,93538.09
2023-05-15T11:57:59.585Z,93524.88
2023-05-15T12:00:26.731Z,93529.84
2023-05-15T12:02:53.986Z,93521.81
2023-05-15T12:05:22.736Z,93518.59
2023-05-15T12:07:50.336Z,93515.69
2023-05-15T12:10:17.588Z,93524.47
2023-05-15T12:12:48.586Z,93515.88
2023-05-15T12:15:17.038Z,93516.88
2023-05-15T12:17:45.305Z,93513.28
2023-05-15T12:20:15.719Z,93518.28
2023-05-15T12:22:44.101Z,93523.88
2023-05-15T12:25:11.829Z,93515.63
2023-05-15T12:27:39.693Z,93496.00
2023-05-15T12:30:07.859Z,93482.13
2023-05-15T12:32:36.377Z,93480.13
2023-05-15T12:35:05.016Z,93477.66
2023-05-15T12:37:33.665Z,93467.81
2023-05-15T12:40:07.411Z,93460.56
2023-05-15T12:42:39.075Z,93448.53
2023-05-15T12:45:12.806Z,93439.13
2023-05-15T12:47:39.804Z,93439.72
2023-05-15T12:50:13.201Z,93437.69
2023-05-15T12:52:40.699Z,93435.72
2023-05-15T12:55:09.554Z,93446.31
2023-05-15T12:57:36.543Z,93451.91
2023-05-15T13:00:05.256Z,93444.13
2023-05-15T13:02:32.330Z,93451.88
2023-05-15T13:05:02.076Z,93453.44
2023-05-15T13:07:29.825Z,93450.19
2023-05-15T13:10:05.075Z,93443.56
2023-05-15T13:12:37.502Z,93441.69
2023-05-15T13:15:05.669Z,93438.34
2023-05-15T13:17:33.410Z,93427.63
2023-05-15T13:20:00.575Z,93437.88
2023-05-15T13:22:28.103Z,93430.28
2023-05-15T13:24:57.072Z,93423.84
2023-05-15T13:27:24.023Z,93421.13
2023-05-15T13:29:52.332Z,93414.13
2023-05-15T13:32:19.205Z,93423.78
2023-05-15T13:34:46.204Z,93431.16
2023-05-15T13:37:13.161Z,93445.22
2023-05-15T13:39:40.059Z,93437.28
2023-05-15T13:42:06.990Z,93446.59
2023-05-15T13:44:35.922Z,93451.13
2023-05-15T13:47:04.641Z,93446.09
2023-05-15T13:49:32.008Z,93443.84
2023-05-15T13:51:59.311Z,93443.81
2023-05-15T13:54:26.261Z,93446.16
2023-05-15T13:56:53.408Z,93441.38
2023-05-15T13:59:20.347Z,93448.63
2023-05-15T14:01:47.575Z,93442.72
2023-05-15T14:04:15.904Z,93452.69
2023-05-15T14:06:42.864Z,93453.31
2023-05-15T14:09:09.868Z,93456.16
2023-05-15T14:11:36.741Z,93443.78
2023-05-15T14:14:04.010Z,93446.75
2023-05-15T14:16:30.879Z,93452.97
2023-05-15T14:18:58.343Z,93447.53
2023-05-15T14:21:26.639Z,93445.84
2023-05-15T14:23:53.510Z,93448.63
2023-05-15T14:26:20.444Z,93439.38
2023-05-15T14:28:47.410Z,93440.91
2023-05-15T14:31:14.388Z,93444.09
2023-05-15T14:33:41.430Z,93437.63
2023-05-15T14:36:08.587Z,93450.91
2023-05-15T14:38:37.708Z,93428.84
2023-05-15T14:41:04.950Z,93429.00
2023-05-15T14:43:31.948Z,93435.44
2023-05-15T14:45:58.957Z,93428.44
2023-05-15T14:48:25.892Z,93427.75
2023-05-15T14:50:52.844Z,93419.66
2023-05-15T14:53:19.904Z,93414.22
2023-05-15T14:55:48.161Z,93423.44
2023-05-15T14:58:15.209Z,93421.25
2023-05-15T15:00:42.110Z,93414.03
2023-05-15T15:03:10.726Z,93415.22
2023-05-15T15:05:37.703Z,93409.03
2023-05-15T15:08:06.189Z,93397.44
2023-05-15T15:10:34.403Z,93403.78
2023-05-15T15:13:03.129Z,93398.22
2023-05-15T15:15:30.690Z,93395.47
2023-05-15T15:17:58.121Z,93395.22
2023-05-15T15:20:26.578Z,93400.06
2023-05-15T15:22:54.021Z,93394.50
2023-05-15T15:25:21.306Z,93381.50
2023-05-15T15:27:49.088Z,93382.97
2023-05-15T15:30:17.145Z,93380.59
2023-05-15T15:32:45.136Z,93382.84
2023-05-15T15:35:12.714Z,93380.38
2023-05-15T15:37:39.723Z,93369.25
2023-05-15T15:40:08.182Z,93381.66
2023-05-15T15:42:35.396Z,93381.81
2023-05-15T15:45:02.447Z,93379.69
2023-05-15T15:47:32.152Z,93372.03
2023-05-15T15:49:59.308Z,93379.81
2023-05-15T15:52:26.713Z,93380.59
2023-05-15T15:54:53.803Z,93380.22
2023-05-15T15:57:21.626Z,93385.25
2023-05-15T15:59:49.317Z,93381.91
2023-05-15T16:02:16.834Z,93384.06
2023-05-15T16:04:45.131Z,93385.66
2023-05-15T16:07:12.077Z,93380.06
2023-05-15T16:09:39.077Z,93376.09
2023-05-15T16:12:06.293Z,93376.88
2023-05-15T16:14:33.215Z,93384.88
2023-05-15T16:17:02.700Z,93386.91
2023-05-15T16:19:30.386Z,93395.34
2023-05-15T16:21:58.796Z,93405.69
2023-05-15T16:24:26.426Z,93416.63
2023-05-15T16:26:53.368Z,93407.25
2023-05-15T16:29:20.688Z,93414.84
2023-05-15T16:31:47.570Z,93409.97
2023-05-15T16:34:14.843Z,93415.84
2023-05-15T16:36:42.204Z,93406.97
2023-05-15T16:39:10.442Z,93413.97
2023-05-15T16:41:37.375Z,93413.09
2023-05-15T16:44:06.225Z,93419.06
2023-05-15T16:46:33.340Z,93415.31
2023-05-15T16:49:00.350Z,93423.81
2023-05-15T16:51:27.260Z,93423.66
2023-05-15T16:53:56.254Z,93422.09
2023-05-15T16:56:24.496Z,93427.72
2023-05-15T16:58:53.093Z,93419.13
2023-05-15T17:01:20.150Z,93423.63
2023-05-15T17:03:47.249Z,93422.25
2023-05-15T17:06:14.237Z,93416.75
2023-05-15T17:08:43.518Z,93420.19
2023-05-15T17:11:10.631Z,93428.59
2023-05-15T17:13:38.951Z,93432.81
2023-05-15T17:16:06.650Z,93430.81
2023-05-15T17:18:33.727Z,93424.78
2023-05-15T17:21:00.751Z,93423.56
2023-05-15T17:23:27.630Z,93427.31
2023-05-15T17:25:54.709Z,93424.47
2023-05-15T17:28:21.617Z,93420.88
2023-05-15T17:30:49.884Z,93427.00
2023-05-15T17:33:16.990Z,93426.78
2023-05-15T17:35:43.920Z,93423.59
2023-05-15T17:38:10.838Z,93424.75
2023-05-15T17:40:37.850Z,93423.91
2023-05-15T17:43:04.763Z,93435.38
2023-05-15T17:45:31.743Z,93443.38
2023-05-15T17:48:03.711Z,93443.00
2023-05-15T17:50:30.950Z,93447.91
2023-05-15T17:52:57.835Z,93450.88
2023-05-15T17:55:25.008Z,93458.66
2023-05-15T17:57:52.290Z,93445.72
2023-05-15T18:00:19.666Z,93449.69
2023-05-15T18:02:46.683Z,93451.06
2023-05-15T18:05:15.137Z,93462.69
2023-05-15T18:07:42.444Z,93475.59
2023-05-15T18:10:10.153Z,93446.34
2023-05-15T18:12:37.054Z,93436.03
2023-05-15T18:15:04.645Z,93438.38
2023-05-15T18:17:31.597Z,93432.63
2023-05-15T18:19:58.960Z,93438.34
2023-05-15T18:22:27.292Z,93449.28
2023-05-15T18:24:54.295Z,93439.50
2023-05-15T18:27:21.270Z,93439.84
2023-05-15T18:29:48.227Z,93452.31
2023-05-15T18:32:15.387Z,93452.28
2023-05-15T18:34:42.225Z,93456.88
2023-05-15T18:37:09.080Z,93452.69
2023-05-15T18:39:38.968Z,93451.41
2023-05-15T18:42:06.844Z,93452.16
2023-05-15T18:44:34.920Z,93437.63
2023-05-15T18:47:02.262Z,93426.44
2023-05-15T18:49:29.694Z,93425.66
2023-05-15T18:51:57.970Z,93428.22
2023-05-15T18:54:24.902Z,93433.94
2023-05-15T18:56:53.226Z,93439.50
2023-05-15T18:59:20.066Z,93445.03
2023-05-15T19:01:48.833Z,93453.56
2023-05-15T19:04:15.867Z,93454.94
2023-05-15T19:06:43.712Z,93456.53
2023-05-15T19:09:10.836Z,93465.44
2023-05-15T19:11:37.703Z,93467.78
2023-05-15T19:14:06.068Z,93457.44
2023-05-15T19:16:33.123Z,93465.00
2023-05-15T19:19:00.255Z,93467.19
2023-05-15T19:21:27.296Z,93472.34
2023-05-15T19:23:54.392Z,93473.56
2023-05-15T19:26:21.811Z,93485.28
2023-05-15T19:28:48.778Z,93479.81
2023-05-15T19:31:30.251Z,93484.66
2023-05-15T19:33:58.693Z,93488.03
2023-05-15T19:36:25.980Z,93489.44
2023-05-15T19:38:53.084Z,93497.69
2023-05-15T19:41:19.942Z,93493.97
2023-05-15T19:43:47.150Z,93493.25
2023-05-15T19:46:14.116Z,93503.41
2023-05-15T19:48:42.640Z,93505.75
2023-05-15T19:51:09.756Z,93505.84
2023-05-15T19:53:36.743Z,93505.19
2023-05-15T19:56:03.898Z,93503.22
2023-05-15T19:58:31.224Z,93510.78
2023-05-15T20:00:58.294Z,93507.63
2023-05-15T20:03:32.497Z,93510.03
2023-05-15T20:06:01.691Z,93494.94
2023-05-15T20:08:28.935Z,93490.84
2023-05-15T20:10:56.250Z,93494.03
2023-05-15T20:13:24.015Z,93483.75
2023-05-15T20:15:54.847Z,93485.69
2023-05-15T20:18:21.968Z,93484.69
2023-05-15T20:20:48.900Z,93479.66
2023-05-15T20:23:17.242Z,93475.97
2023-05-15T20:25:44.205Z,93472.31
2023-05-15T20:28:11.318Z,93472.00
2023-05-15T20:30:38.281Z,93466.19
2023-05-15T20:33:05.404Z,93459.16
2023-05-15T20:35:32.383Z,93451.66
2023-05-15T20:37:59.285Z,93459.16
2023-05-15T20:40:28.171Z,93439.28
2023-05-15T20:42:56.918Z,93431.31
2023-05-15T20:45:24.457Z,93437.41
2023-05-15T20:47:51.429Z,93426.69
2023-05-15T20:50:18.612Z,93417.53
2023-05-15T20:52:46.153Z,93407.94
2023-05-15T20:55:17.211Z,93419.00
2023-05-15T20:57:46.716Z,93409.47
2023-05-15T21:00:15.703Z,93403.50
2023-05-15T21:02:43.119Z,93395.16
2023-05-15T21:05:10.582Z,93407.06
2023-05-15T21:07:37.485Z,93403.72
2023-05-15T21:10:05.038Z,93408.50
2023-05-15T21:12:34.533Z,93410.09
2023-05-15T21:15:04.338Z,93416.84
2023-05-15T21:17:31.494Z,93410.91
2023-05-15T21:19:58.584Z,93415.44
2023-05-15T21:22:25.818Z,93417.66
2023-05-15T21:24:52.719Z,93408.34
2023-05-15T21:27:19.745Z,93413.13
2023-05-15T21:29:46.734Z,93403.16
2023-05-15T21:32:15.215Z,93404.56
2023-05-15T21:34:42.175Z,93410.34
2023-05-15T21:37:09.096Z,93407.22
2023-05-15T21:39:36.022Z,93412.63
2023-05-15T21:42:02.982Z,93418.63
2023-05-15T21:44:29.841Z,93415.06
2023-05-15T21:46:57.082Z,93417.25
2023-05-15T21:49:25.544Z,93420.09
2023-05-15T21:51:52.546Z,93412.59
2023-05-15T21:54:19.526Z,93412.22
2023-05-15T21:56:46.439Z,93408.44
2023-05-15T21:59:14.546Z,93412.47
2023-05-15T22:01:41.634Z,93413.25
2023-05-15T22:04:09.022Z,93414.41
2023-05-15T22:06:37.456Z,93416.63
2023-05-15T22:09:04.293Z,93418.44
2023-05-15T22:11:31.210Z,93413.06
2023-05-15T22:13:58.169Z,93418.66
2023-05-15T22:16:25.457Z,93433.00
2023-05-15T22:18:54.062Z,93436.56
2023-05-15T22:21:21.042Z,93433.69
2023-05-15T22:23:49.365Z,93441.16
2023-05-15T22:26:16.054Z,93437.44
2023-05-15T22:28:42.976Z,93434.56
2023-05-15T22:31:09.939Z,93437.75
2023-05-15T22:33:36.858Z,93436.97
2023-05-15T22:36:04.273Z,93441.78
2023-05-15T22:38:31.491Z,93437.66
2023-05-15T22:40:59.848Z,93433.88
2023-05-15T22:43:26.591Z,93438.25
2023-05-15T22:45:53.672Z,93444.78
2023-05-15T22:48:21.053Z,93442.75
2023-05-15T22:50:48.655Z,93446.94
2023-05-15T22:53:15.767Z,93446.56
2023-05-15T22:55:42.798Z,93439.00
2023-05-15T22:58:11.131Z,93437.41
2023-05-15T23:00:38.033Z,93433.78
2023-05-15T23:03:05.150Z,93432.34
2023-05-15T23:05:32.059Z,93425.41
2023-05-15T23:07:58.952Z,93419.56
2023-05-15T23:10:26.235Z,93433.59
2023-05-15T23:12:53.883Z,93431.16
2023-05-15T23:15:22.188Z,93432.09
2023-05-15T23:17:48.959Z,93428.19
2023-05-15T23:20:16.035Z,93424.66
2023-05-15T23:22:43.013Z,93419.63
2023-05-15T23:25:10.260Z,93422.38
2023-05-15T23:27:37.198Z,93420.59
2023-05-15T23:30:05.056Z,93417.94
2023-05-15T23:32:33.426Z,93423.25
2023-05-15T23:35:00.377Z,93420.25
2023-05-15T23:37:27.282Z,93431.09
2023-05-15T23:39:57.155Z,93421.41
2023-05-15T23:42:24.120Z,93413.84
2023-05-15T23:44:51.232Z,93416.44
2023-05-15T23:47:18.185Z,93421.69
2023-05-15T23:49:46.539Z,93416.06
2023-05-15T23:52:13.617Z,93409.66
2023-05-15T23:54:40.576Z,93405.13
2023-05-15T23:57:07.472Z,93414.28
2023-05-15T23:59:34.425Z,93404.16
